sensor_id;sensor_type;location;lat;lon;timestamp;P1;durP1;ratioP1;P2;durP2;ratioP2
53644;SDS011;39547;45.554;12.068;2023-05-10T00:03:14;12.07;;;3.45;;
53644;SDS011;39547;45.554;12.068;2023-05-10T00:09:15;10.48;;;3.13;;
53644;SDS011;39547;45.554;12.068;2023-05-10T00:15:17;11.30;;;3.47;;
53644;SDS011;39547;45.554;12.068;2023-05-10T00:21:19;10.93;;;3.55;;
53644;SDS011;39547;45.554;12.068;2023-05-10T00:27:20;12.55;;;3.50;;
53644;SDS011;39547;45.554;12.068;2023-05-10T00:33:22;11.63;;;3.53;;
53644;SDS011;39547;45.554;12.068;2023-05-10T00:39:23;11.75;;;3.67;;
53644;SDS011;39547;45.554;12.068;2023-05-10T00:45:25;10.23;;;3.03;;
53644;SDS011;39547;45.554;12.068;2023-05-10T00:51:26;11.25;;;3.40;;
53644;SDS011;39547;45.554;12.068;2023-05-10T00:57:28;10.90;;;3.30;;
53644;SDS011;39547;45.554;12.068;2023-05-10T01:03:29;10.68;;;3.20;;
53644;SDS011;39547;45.554;12.068;2023-05-10T01:09:31;11.10;;;3.20;;
53644;SDS011;39547;45.554;12.068;2023-05-10T01:15:34;10.75;;;3.22;;
53644;SDS011;39547;45.554;12.068;2023-05-10T01:34:30;10.40;;;3.10;;
53644;SDS011;39547;45.554;12.068;2023-05-10T01:40:42;11.00;;;3.13;;
53644;SDS011;39547;45.554;12.068;2023-05-10T01:47:04;12.38;;;3.30;;
53644;SDS011;39547;45.554;12.068;2023-05-10T01:53:18;11.45;;;3.50;;
53644;SDS011;39547;45.554;12.068;2023-05-10T01:59:21;11.45;;;3.45;;
53644;SDS011;39547;45.554;12.068;2023-05-10T02:05:27;10.70;;;3.50;;
53644;SDS011;39547;45.554;12.068;2023-05-10T02:11:30;11.10;;;3.50;;
53644;SDS011;39547;45.554;12.068;2023-05-10T02:17:34;11.40;;;4.05;;
53644;SDS011;39547;45.554;12.068;2023-05-10T02:29:39;11.40;;;3.50;;
53644;SDS011;39547;45.554;12.068;2023-05-10T02:35:41;11.30;;;3.88;;
53644;SDS011;39547;45.554;12.068;2023-05-10T02:41:43;11.20;;;3.80;;
53644;SDS011;39547;45.554;12.068;2023-05-10T02:47:48;11.32;;;3.60;;
53644;SDS011;39547;45.554;12.068;2023-05-10T02:53:49;10.82;;;3.63;;
53644;SDS011;39547;45.554;12.068;2023-05-10T03:05:55;11.65;;;3.85;;
53644;SDS011;39547;45.554;12.068;2023-05-10T03:12:07;11.35;;;3.53;;
53644;SDS011;39547;45.554;12.068;2023-05-10T03:18:21;11.25;;;3.55;;
53644;SDS011;39547;45.554;12.068;2023-05-10T03:24:23;11.70;;;4.00;;
53644;SDS011;39547;45.554;12.068;2023-05-10T03:30:30;11.90;;;3.83;;
53644;SDS011;39547;45.554;12.068;2023-05-10T03:36:33;11.57;;;3.85;;
53644;SDS011;39547;45.554;12.068;2023-05-10T03:42:36;12.07;;;3.90;;
53644;SDS011;39547;45.554;12.068;2023-05-10T03:48:37;12.07;;;4.20;;
53644;SDS011;39547;45.554;12.068;2023-05-10T03:54:40;12.38;;;3.97;;
53644;SDS011;39547;45.554;12.068;2023-05-10T04:00:41;11.35;;;3.88;;
53644;SDS011;39547;45.554;12.068;2023-05-10T04:06:46;12.00;;;4.03;;
53644;SDS011;39547;45.554;12.068;2023-05-10T04:12:47;11.40;;;3.88;;
53644;SDS011;39547;45.554;12.068;2023-05-10T04:18:49;12.15;;;4.38;;
53644;SDS011;39547;45.554;12.068;2023-05-10T04:24:51;11.57;;;4.10;;
53644;SDS011;39547;45.554;12.068;2023-05-10T04:30:52;13.25;;;4.38;;
53644;SDS011;39547;45.554;12.068;2023-05-10T04:36:54;12.07;;;4.55;;
53644;SDS011;39547;45.554;12.068;2023-05-10T04:42:55;12.05;;;4.38;;
53644;SDS011;39547;45.554;12.068;2023-05-10T04:48:56;12.80;;;5.15;;
53644;SDS011;39547;45.554;12.068;2023-05-10T04:54:58;13.20;;;4.65;;
53644;SDS011;39547;45.554;12.068;2023-05-10T05:01:06;12.70;;;4.80;;
53644;SDS011;39547;45.554;12.068;2023-05-10T05:07:08;13.88;;;4.80;;
53644;SDS011;39547;45.554;12.068;2023-05-10T05:13:12;13.57;;;5.00;;
53644;SDS011;39547;45.554;12.068;2023-05-10T05:19:13;11.77;;;3.95;;
53644;SDS011;39547;45.554;12.068;2023-05-10T05:25:15;12.18;;;4.30;;
53644;SDS011;39547;45.554;12.068;2023-05-10T05:31:16;11.73;;;3.80;;
53644;SDS011;39547;45.554;12.068;2023-05-10T05:37:19;12.73;;;4.50;;
53644;SDS011;39547;45.554;12.068;2023-05-10T05:43:47;11.77;;;4.20;;
53644;SDS011;39547;45.554;12.068;2023-05-10T05:49:50;11.82;;;4.35;;
53644;SDS011;39547;45.554;12.068;2023-05-10T05:55:52;11.82;;;4.18;;
53644;SDS011;39547;45.554;12.068;2023-05-10T06:01:54;12.50;;;4.90;;
53644;SDS011;39547;45.554;12.068;2023-05-10T06:07:55;12.68;;;4.18;;
53644;SDS011;39547;45.554;12.068;2023-05-10T06:13:57;13.63;;;4.65;;
53644;SDS011;39547;45.554;12.068;2023-05-10T06:20:00;12.20;;;4.78;;
53644;SDS011;39547;45.554;12.068;2023-05-10T06:26:01;12.98;;;4.80;;
53644;SDS011;39547;45.554;12.068;2023-05-10T06:32:02;13.25;;;4.90;;
53644;SDS011;39547;45.554;12.068;2023-05-10T06:38:04;13.07;;;4.60;;
53644;SDS011;39547;45.554;12.068;2023-05-10T06:44:06;13.98;;;5.57;;
53644;SDS011;39547;45.554;12.068;2023-05-10T06:50:08;13.07;;;5.03;;
53644;SDS011;39547;45.554;12.068;2023-05-10T06:56:10;14.05;;;4.88;;
53644;SDS011;39547;45.554;12.068;2023-05-10T07:02:11;13.60;;;5.63;;
53644;SDS011;39547;45.554;12.068;2023-05-10T07:08:13;13.73;;;5.57;;
53644;SDS011;39547;45.554;12.068;2023-05-10T07:14:14;13.57;;;5.40;;
53644;SDS011;39547;45.554;12.068;2023-05-10T07:20:15;13.95;;;6.05;;
53644;SDS011;39547;45.554;12.068;2023-05-10T07:26:17;14.02;;;6.22;;
53644;SDS011;39547;45.554;12.068;2023-05-10T07:32:19;14.32;;;5.80;;
53644;SDS011;39547;45.554;12.068;2023-05-10T07:38:20;14.15;;;5.78;;
53644;SDS011;39547;45.554;12.068;2023-05-10T07:44:22;13.10;;;5.35;;
53644;SDS011;39547;45.554;12.068;2023-05-10T07:50:23;14.45;;;6.18;;
53644;SDS011;39547;45.554;12.068;2023-05-10T07:56:26;13.32;;;5.40;;
53644;SDS011;39547;45.554;12.068;2023-05-10T08:02:30;13.25;;;5.38;;
53644;SDS011;39547;45.554;12.068;2023-05-10T08:08:31;14.43;;;5.68;;
53644;SDS011;39547;45.554;12.068;2023-05-10T08:14:33;14.60;;;6.30;;
53644;SDS011;39547;45.554;12.068;2023-05-10T08:20:34;12.82;;;5.13;;
53644;SDS011;39547;45.554;12.068;2023-05-10T08:26:36;12.95;;;5.20;;
53644;SDS011;39547;45.554;12.068;2023-05-10T08:32:37;13.93;;;5.45;;
53644;SDS011;39547;45.554;12.068;2023-05-10T08:38:39;14.88;;;6.32;;
53644;SDS011;39547;45.554;12.068;2023-05-10T08:44:40;14.70;;;6.13;;
53644;SDS011;39547;45.554;12.068;2023-05-10T08:50:44;16.58;;;7.20;;
53644;SDS011;39547;45.554;12.068;2023-05-10T08:56:47;15.55;;;6.05;;
53644;SDS011;39547;45.554;12.068;2023-05-10T09:02:49;14.43;;;6.43;;
53644;SDS011;39547;45.554;12.068;2023-05-10T09:08:51;13.68;;;5.68;;
53644;SDS011;39547;45.554;12.068;2023-05-10T09:14:53;14.65;;;6.40;;
53644;SDS011;39547;45.554;12.068;2023-05-10T09:20:56;14.93;;;6.88;;
53644;SDS011;39547;45.554;12.068;2023-05-10T09:26:57;14.52;;;6.60;;
53644;SDS011;39547;45.554;12.068;2023-05-10T09:32:59;15.30;;;6.32;;
53644;SDS011;39547;45.554;12.068;2023-05-10T09:39:01;15.25;;;7.15;;
53644;SDS011;39547;45.554;12.068;2023-05-10T09:45:04;16.67;;;8.25;;
53644;SDS011;39547;45.554;12.068;2023-05-10T09:51:06;14.48;;;6.28;;
53644;SDS011;39547;45.554;12.068;2023-05-10T09:57:08;14.13;;;6.50;;
53644;SDS011;39547;45.554;12.068;2023-05-10T10:03:21;17.42;;;8.82;;
53644;SDS011;39547;45.554;12.068;2023-05-10T10:09:23;14.25;;;6.43;;
53644;SDS011;39547;45.554;12.068;2023-05-10T10:15:25;15.05;;;6.50;;
53644;SDS011;39547;45.554;12.068;2023-05-10T10:21:27;16.08;;;7.90;;
53644;SDS011;39547;45.554;12.068;2023-05-10T10:33:57;14.80;;;6.65;;
53644;SDS011;39547;45.554;12.068;2023-05-10T10:46:28;16.88;;;7.25;;
53644;SDS011;39547;45.554;12.068;2023-05-10T10:52:31;14.73;;;6.25;;
53644;SDS011;39547;45.554;12.068;2023-05-10T10:58:39;16.02;;;7.63;;
53644;SDS011;39547;45.554;12.068;2023-05-10T11:04:42;15.82;;;7.18;;
53644;SDS011;39547;45.554;12.068;2023-05-10T11:17:01;15.43;;;6.40;;
53644;SDS011;39547;45.554;12.068;2023-05-10T11:23:20;15.45;;;6.72;;
53644;SDS011;39547;45.554;12.068;2023-05-10T11:29:22;17.23;;;8.10;;
53644;SDS011;39547;45.554;12.068;2023-05-10T11:35:27;16.23;;;6.93;;
53644;SDS011;39547;45.554;12.068;2023-05-10T11:41:29;15.60;;;6.75;;
53644;SDS011;39547;45.554;12.068;2023-05-10T11:47:31;16.58;;;7.15;;
53644;SDS011;39547;45.554;12.068;2023-05-10T11:53:33;15.57;;;7.20;;
53644;SDS011;39547;45.554;12.068;2023-05-10T11:59:36;16.42;;;7.63;;
53644;SDS011;39547;45.554;12.068;2023-05-10T12:05:37;16.23;;;7.43;;
53644;SDS011;39547;45.554;12.068;2023-05-10T12:11:39;16.85;;;7.53;;
53644;SDS011;39547;45.554;12.068;2023-05-10T12:17:41;14.80;;;6.85;;
53644;SDS011;39547;45.554;12.068;2023-05-10T12:23:46;16.00;;;7.38;;
53644;SDS011;39547;45.554;12.068;2023-05-10T12:29:51;18.33;;;8.57;;
53644;SDS011;39547;45.554;12.068;2023-05-10T12:35:53;16.50;;;7.75;;
53644;SDS011;39547;45.554;12.068;2023-05-10T12:41:55;19.70;;;9.52;;
53644;SDS011;39547;45.554;12.068;2023-05-10T12:47:56;19.30;;;9.82;;
53644;SDS011;39547;45.554;12.068;2023-05-10T12:53:58;18.25;;;7.85;;
53644;SDS011;39547;45.554;12.068;2023-05-10T12:59:59;17.27;;;8.00;;
53644;SDS011;39547;45.554;12.068;2023-05-10T13:06:00;15.77;;;7.28;;
53644;SDS011;39547;45.554;12.068;2023-05-10T13:12:02;18.50;;;9.38;;
53644;SDS011;39547;45.554;12.068;2023-05-10T13:18:04;16.77;;;7.75;;
53644;SDS011;39547;45.554;12.068;2023-05-10T13:24:07;18.95;;;8.88;;
53644;SDS011;39547;45.554;12.068;2023-05-10T13:30:09;19.08;;;8.35;;
53644;SDS011;39547;45.554;12.068;2023-05-10T13:36:12;16.83;;;7.88;;
53644;SDS011;39547;45.554;12.068;2023-05-10T13:42:13;19.83;;;10.18;;
53644;SDS011;39547;45.554;12.068;2023-05-10T13:48:15;20.55;;;9.48;;
53644;SDS011;39547;45.554;12.068;2023-05-10T13:54:16;18.77;;;8.98;;
53644;SDS011;39547;45.554;12.068;2023-05-10T14:00:20;20.03;;;10.37;;
53644;SDS011;39547;45.554;12.068;2023-05-10T14:06:21;25.50;;;11.05;;
53644;SDS011;39547;45.554;12.068;2023-05-10T14:12:23;18.40;;;9.45;;
53644;SDS011;39547;45.554;12.068;2023-05-10T14:18:24;17.60;;;8.82;;
53644;SDS011;39547;45.554;12.068;2023-05-10T14:24:26;21.17;;;11.13;;
53644;SDS011;39547;45.554;12.068;2023-05-10T14:30:27;20.10;;;10.52;;
53644;SDS011;39547;45.554;12.068;2023-05-10T14:36:30;21.48;;;11.55;;
53644;SDS011;39547;45.554;12.068;2023-05-10T14:42:32;22.85;;;10.93;;
53644;SDS011;39547;45.554;12.068;2023-05-10T14:48:33;18.40;;;9.55;;
53644;SDS011;39547;45.554;12.068;2023-05-10T14:54:35;21.40;;;11.82;;
53644;SDS011;39547;45.554;12.068;2023-05-10T15:00:37;22.05;;;12.18;;
53644;SDS011;39547;45.554;12.068;2023-05-10T15:06:38;19.98;;;10.57;;
53644;SDS011;39547;45.554;12.068;2023-05-10T15:12:39;22.08;;;11.98;;
53644;SDS011;39547;45.554;12.068;2023-05-10T15:18:41;23.65;;;13.65;;
53644;SDS011;39547;45.554;12.068;2023-05-10T15:24:42;21.08;;;11.27;;
53644;SDS011;39547;45.554;12.068;2023-05-10T15:30:44;23.58;;;12.98;;
53644;SDS011;39547;45.554;12.068;2023-05-10T15:36:45;21.48;;;12.48;;
53644;SDS011;39547;45.554;12.068;2023-05-10T15:42:46;21.55;;;12.27;;
53644;SDS011;39547;45.554;12.068;2023-05-10T15:48:48;24.15;;;14.38;;
53644;SDS011;39547;45.554;12.068;2023-05-10T15:54:49;24.02;;;13.73;;
53644;SDS011;39547;45.554;12.068;2023-05-10T16:00:51;26.38;;;15.27;;
53644;SDS011;39547;45.554;12.068;2023-05-10T16:06:52;25.55;;;14.98;;
53644;SDS011;39547;45.554;12.068;2023-05-10T16:12:54;21.38;;;12.27;;
53644;SDS011;39547;45.554;12.068;2023-05-10T16:18:56;22.42;;;12.63;;
53644;SDS011;39547;45.554;12.068;2023-05-10T16:24:58;22.63;;;13.15;;
53644;SDS011;39547;45.554;12.068;2023-05-10T16:30:59;22.63;;;13.23;;
53644;SDS011;39547;45.554;12.068;2023-05-10T16:37:01;21.58;;;13.15;;
53644;SDS011;39547;45.554;12.068;2023-05-10T16:43:02;24.52;;;13.90;;
53644;SDS011;39547;45.554;12.068;2023-05-10T16:49:05;24.17;;;14.82;;
53644;SDS011;39547;45.554;12.068;2023-05-10T16:55:06;23.23;;;13.95;;
53644;SDS011;39547;45.554;12.068;2023-05-10T17:01:08;25.05;;;14.88;;
53644;SDS011;39547;45.554;12.068;2023-05-10T17:07:09;21.52;;;12.75;;
53644;SDS011;39547;45.554;12.068;2023-05-10T17:13:12;25.90;;;15.52;;
53644;SDS011;39547;45.554;12.068;2023-05-10T17:19:16;23.17;;;13.70;;
53644;SDS011;39547;45.554;12.068;2023-05-10T17:25:18;23.10;;;13.85;;
53644;SDS011;39547;45.554;12.068;2023-05-10T17:31:20;24.88;;;15.80;;
53644;SDS011;39547;45.554;12.068;2023-05-10T17:37:21;26.77;;;16.35;;
53644;SDS011;39547;45.554;12.068;2023-05-10T17:43:22;27.35;;;17.60;;
53644;SDS011;39547;45.554;12.068;2023-05-10T17:49:25;24.73;;;15.65;;
53644;SDS011;39547;45.554;12.068;2023-05-10T17:55:28;27.02;;;16.92;;
53644;SDS011;39547;45.554;12.068;2023-05-10T18:01:30;27.15;;;16.83;;
53644;SDS011;39547;45.554;12.068;2023-05-10T18:07:32;26.92;;;16.58;;
53644;SDS011;39547;45.554;12.068;2023-05-10T18:13:35;28.60;;;17.52;;
53644;SDS011;39547;45.554;12.068;2023-05-10T18:19:37;28.50;;;17.65;;
53644;SDS011;39547;45.554;12.068;2023-05-10T18:25:39;28.10;;;16.95;;
53644;SDS011;39547;45.554;12.068;2023-05-10T18:31:40;27.77;;;17.20;;
53644;SDS011;39547;45.554;12.068;2023-05-10T18:37:42;26.45;;;16.70;;
53644;SDS011;39547;45.554;12.068;2023-05-10T18:43:43;26.48;;;16.27;;
53644;SDS011;39547;45.554;12.068;2023-05-10T18:49:45;25.13;;;15.68;;
53644;SDS011;39547;45.554;12.068;2023-05-10T18:55:53;26.85;;;16.55;;
53644;SDS011;39547;45.554;12.068;2023-05-10T19:01:56;25.20;;;15.15;;
53644;SDS011;39547;45.554;12.068;2023-05-10T19:07:58;26.08;;;15.50;;
53644;SDS011;39547;45.554;12.068;2023-05-10T19:14:00;24.90;;;14.52;;
53644;SDS011;39547;45.554;12.068;2023-05-10T19:20:03;23.75;;;14.48;;
53644;SDS011;39547;45.554;12.068;2023-05-10T19:26:08;22.20;;;13.15;;
53644;SDS011;39547;45.554;12.068;2023-05-10T19:32:10;21.58;;;12.32;;
53644;SDS011;39547;45.554;12.068;2023-05-10T19:38:12;21.63;;;12.55;;
53644;SDS011;39547;45.554;12.068;2023-05-10T19:44:14;20.88;;;11.90;;
53644;SDS011;39547;45.554;12.068;2023-05-10T19:50:16;22.52;;;12.38;;
53644;SDS011;39547;45.554;12.068;2023-05-10T19:56:18;20.33;;;11.30;;
53644;SDS011;39547;45.554;12.068;2023-05-10T20:02:20;21.63;;;10.93;;
53644;SDS011;39547;45.554;12.068;2023-05-10T20:08:22;19.45;;;10.60;;
53644;SDS011;39547;45.554;12.068;2023-05-10T20:14:24;19.08;;;10.23;;
53644;SDS011;39547;45.554;12.068;2023-05-10T20:20:25;17.63;;;9.10;;
53644;SDS011;39547;45.554;12.068;2023-05-10T20:26:28;16.92;;;8.70;;
53644;SDS011;39547;45.554;12.068;2023-05-10T20:32:29;17.63;;;9.07;;
53644;SDS011;39547;45.554;12.068;2023-05-10T20:38:31;17.25;;;8.70;;
53644;SDS011;39547;45.554;12.068;2023-05-10T20:44:33;16.95;;;8.82;;
53644;SDS011;39547;45.554;12.068;2023-05-10T20:50:34;16.33;;;8.02;;
53644;SDS011;39547;45.554;12.068;2023-05-10T20:56:36;16.50;;;8.10;;
53644;SDS011;39547;45.554;12.068;2023-05-10T21:02:37;15.70;;;7.65;;
53644;SDS011;39547;45.554;12.068;2023-05-10T21:08:42;15.52;;;7.20;;
53644;SDS011;39547;45.554;12.068;2023-05-10T21:14:44;15.75;;;7.55;;
53644;SDS011;39547;45.554;12.068;2023-05-10T21:20:47;15.20;;;7.47;;
53644;SDS011;39547;45.554;12.068;2023-05-10T21:26:49;16.73;;;7.80;;
53644;SDS011;39547;45.554;12.068;2023-05-10T21:32:50;15.43;;;7.40;;
53644;SDS011;39547;45.554;12.068;2023-05-10T21:38:51;15.75;;;7.35;;
53644;SDS011;39547;45.554;12.068;2023-05-10T21:44:53;16.08;;;7.47;;
53644;SDS011;39547;45.554;12.068;2023-05-10T21:50:54;15.02;;;7.45;;
53644;SDS011;39547;45.554;12.068;2023-05-10T21:56:56;15.00;;;7.10;;
53644;SDS011;39547;45.554;12.068;2023-05-10T22:02:57;15.25;;;7.35;;
53644;SDS011;39547;45.554;12.068;2023-05-10T22:08:59;16.63;;;7.00;;
53644;SDS011;39547;45.554;12.068;2023-05-10T22:15:00;15.30;;;6.75;;
53644;SDS011;39547;45.554;12.068;2023-05-10T22:21:02;14.70;;;6.70;;
53644;SDS011;39547;45.554;12.068;2023-05-10T22:27:04;15.80;;;6.93;;
53644;SDS011;39547;45.554;12.068;2023-05-10T22:33:05;14.70;;;6.88;;
53644;SDS011;39547;45.554;12.068;2023-05-10T22:39:07;15.15;;;7.00;;
53644;SDS011;39547;45.554;12.068;2023-05-10T22:45:08;15.18;;;7.28;;
53644;SDS011;39547;45.554;12.068;2023-05-10T22:51:10;15.18;;;7.18;;
53644;SDS011;39547;45.554;12.068;2023-05-10T22:57:11;14.18;;;6.50;;
53644;SDS011;39547;45.554;12.068;2023-05-10T23:03:13;14.13;;;5.72;;
53644;SDS011;39547;45.554;12.068;2023-05-10T23:09:14;13.77;;;5.90;;
53644;SDS011;39547;45.554;12.068;2023-05-10T23:15:16;12.93;;;5.40;;
53644;SDS011;39547;45.554;12.068;2023-05-10T23:21:17;12.57;;;4.95;;
53644;SDS011;39547;45.554;12.068;2023-05-10T23:27:19;11.93;;;4.55;;
53644;SDS011;39547;45.554;12.068;2023-05-10T23:33:20;11.82;;;4.10;;
53644;SDS011;39547;45.554;12.068;2023-05-10T23:39:22;12.43;;;4.20;;
53644;SDS011;39547;45.554;12.068;2023-05-10T23:45:24;12.02;;;3.92;;
53644;SDS011;39547;45.554;12.068;2023-05-10T23:51:25;11.35;;;3.85;;
53644;SDS011;39547;45.554;12.068;2023-05-10T23:57:27;11.27;;;3.80;;
